createdAt,value
2022-12-31T00:05:33.660Z,13.33
2022-12-31T00:15:37.856Z,13.36
2022-12-31T00:25:41.822Z,13.49
2022-12-31T00:35:46.081Z,13.60
2022-12-31T00:45:49.313Z,13.61
2022-12-31T00:55:54.294Z,13.72
2022-12-31T01:06:00.327Z,13.69
2022-12-31T01:16:09.868Z,13.78
2022-12-31T01:26:15.359Z,13.89
2022-12-31T01:36:25.962Z,13.99
2022-12-31T01:46:36.024Z,14.05
2022-12-31T01:56:43.224Z,14.16
2022-12-31T02:06:51.889Z,14.29
2022-12-31T02:17:03.986Z,14.44
2022-12-31T02:27:11.822Z,14.59
2022-12-31T02:37:18.272Z,14.96
2022-12-31T02:47:37.045Z,14.89
2022-12-31T02:57:47.982Z,15.08
2022-12-31T03:07:51.094Z,15.01
2022-12-31T03:18:03.944Z,14.96
2022-12-31T03:28:09.630Z,15.06
2022-12-31T03:38:14.535Z,15.08
2022-12-31T03:48:17.614Z,15.08
2022-12-31T03:58:23.002Z,15.14
2022-12-31T04:08:26.074Z,15.27
2022-12-31T04:18:30.499Z,15.35
2022-12-31T04:28:33.704Z,15.34
2022-12-31T04:38:37.925Z,15.38
2022-12-31T04:48:41.173Z,15.57
2022-12-31T04:58:46.022Z,15.72
2022-12-31T05:08:49.885Z,15.78
2022-12-31T05:18:54.225Z,15.91
2022-12-31T05:28:57.571Z,15.96
2022-12-31T05:39:03.699Z,15.87
2022-12-31T05:49:06.805Z,15.98
2022-12-31T05:59:11.469Z,15.80
2022-12-31T06:09:15.838Z,15.86
2022-12-31T06:19:20.265Z,16.03
2022-12-31T06:29:23.319Z,15.98
2022-12-31T06:39:29.147Z,16.11
2022-12-31T06:49:32.150Z,16.19
2022-12-31T06:59:37.834Z,16.21
2022-12-31T07:09:51.288Z,16.23
2022-12-31T07:20:04.876Z,16.34
2022-12-31T07:30:12.649Z,16.31
2022-12-31T07:40:25.171Z,16.29
2022-12-31T07:50:28.876Z,16.33
2022-12-31T08:00:33.938Z,16.39
2022-12-31T08:10:51.074Z,16.47
2022-12-31T08:21:08.360Z,16.55
2022-12-31T08:31:18.148Z,16.60
2022-12-31T08:41:28.852Z,16.72
2022-12-31T08:51:32.373Z,16.72
2022-12-31T09:01:49.258Z,16.69
2022-12-31T09:11:58.916Z,16.87
2022-12-31T09:22:04.264Z,16.93
2022-12-31T09:32:18.350Z,17.13
2022-12-31T09:42:53.944Z,17.31
2022-12-31T09:53:13.701Z,17.46
2022-12-31T10:03:31.000Z,17.52
2022-12-31T10:13:57.347Z,17.51
2022-12-31T10:24:16.328Z,17.42
2022-12-31T10:34:27.176Z,17.46
2022-12-31T10:45:18.516Z,17.47
2022-12-31T10:55:50.961Z,17.55
2022-12-31T11:06:33.384Z,17.60
2022-12-31T11:17:06.363Z,17.62
2022-12-31T11:27:24.874Z,17.63
2022-12-31T11:37:42.130Z,17.59
2022-12-31T11:58:21.571Z,17.61
2022-12-31T12:08:25.971Z,17.65
2022-12-31T12:18:37.063Z,17.65
2022-12-31T12:28:46.203Z,17.74
2022-12-31T12:39:02.167Z,17.93
2022-12-31T12:49:05.816Z,18.17
2022-12-31T12:59:33.155Z,18.07
2022-12-31T13:09:50.004Z,17.88
2022-12-31T13:20:01.644Z,17.85
2022-12-31T13:30:24.125Z,17.85
2022-12-31T13:40:32.188Z,17.82
2022-12-31T13:50:39.087Z,17.71
2022-12-31T14:00:48.610Z,17.64
2022-12-31T14:11:01.731Z,17.56
2022-12-31T14:21:12.044Z,17.57
2022-12-31T14:31:30.039Z,17.55
2022-12-31T14:41:46.272Z,17.48
2022-12-31T14:51:49.431Z,17.35
2022-12-31T15:01:54.683Z,17.10
2022-12-31T15:12:08.682Z,17.11
2022-12-31T15:22:28.453Z,16.97
2022-12-31T15:32:37.036Z,16.95
2022-12-31T15:42:50.074Z,16.99
2022-12-31T15:52:56.251Z,16.97
2022-12-31T16:03:00.764Z,16.88
2022-12-31T16:13:05.352Z,16.88
2022-12-31T16:23:22.258Z,16.79
2022-12-31T16:33:25.347Z,16.68
2022-12-31T16:43:31.870Z,16.61
2022-12-31T16:53:38.916Z,16.64
2022-12-31T17:03:47.114Z,16.60
2022-12-31T17:13:55.644Z,16.55
2022-12-31T17:24:03.267Z,16.47
2022-12-31T17:34:20.973Z,16.54
2022-12-31T17:44:29.586Z,16.42
2022-12-31T17:54:32.791Z,16.43
2022-12-31T18:04:37.925Z,16.36
2022-12-31T18:14:42.045Z,16.28
2022-12-31T18:24:46.434Z,16.28
2022-12-31T18:34:49.992Z,16.21
2022-12-31T18:44:54.466Z,16.22
2022-12-31T18:54:57.630Z,16.18
2022-12-31T19:05:02.111Z,16.19
2022-12-31T19:15:15.953Z,16.19
2022-12-31T19:25:22.727Z,16.12
2022-12-31T19:35:46.036Z,16.21
2022-12-31T19:45:51.581Z,16.21
2022-12-31T19:55:55.214Z,16.13
2022-12-31T20:06:05.593Z,16.13
2022-12-31T20:16:09.857Z,16.11
2022-12-31T20:26:14.384Z,16.13
2022-12-31T20:36:18.412Z,16.08
2022-12-31T20:46:25.834Z,16.12
2022-12-31T20:56:31.123Z,16.06
2022-12-31T21:06:36.378Z,16.13
2022-12-31T21:16:39.724Z,16.13
2022-12-31T21:26:44.171Z,16.06
2022-12-31T21:36:47.298Z,16.12
2022-12-31T21:47:33.423Z,15.97
2022-12-31T21:57:19.054Z,15.97
2022-12-31T22:07:23.562Z,15.99
2022-12-31T22:17:26.789Z,16.01
2022-12-31T22:27:31.157Z,15.91
2022-12-31T22:47:58.861Z,16.03
2022-12-31T22:58:02.027Z,15.95
2022-12-31T23:08:17.202Z,15.94
2022-12-31T23:18:40.766Z,16.01
2022-12-31T23:28:45.318Z,15.94
2022-12-31T23:38:48.585Z,15.80
2022-12-31T23:48:53.863Z,15.74
2022-12-31T23:58:57.220Z,15.70
